Time;durP1;ratioP1;P1;durP2;ratioP2;P2;SDS_P1;SDS_P2;PMS_P1;PMS_P2;Temp;Humidity;BMP_temperature;BMP_pressure;BME280_temperature;BME280_humidity;BME280_pressure;Samples;Min_cycle;Max_cycle;Signal;HPM_P1;HPM_P2
2022/04/29 00:02:41;;;;;;;2.13;1.67;;;9.10;99.90;;;;;;5086114;28;20185;-57
2022/04/29 00:05:26;;;;;;;1.90;1.80;;;8.90;99.90;;;;;;5084319;28;20279;-57
2022/04/29 00:08:11;;;;;;;1.73;1.60;;;8.90;99.90;;;;;;5086283;28;20212;-52
2022/04/29 00:10:56;;;;;;;2.47;2.20;;;8.80;99.90;;;;;;5084862;28;20201;-51
2022/04/29 00:13:41;;;;;;;1.70;1.60;;;8.80;99.90;;;;;;5085618;28;20196;-53
2022/04/29 00:16:26;;;;;;;1.83;1.27;;;8.90;99.90;;;;;;5086786;28;20278;-56
2022/04/29 00:19:10;;;;;;;1.37;1.37;;;8.90;99.90;;;;;;5084018;28;20208;-53
2022/04/29 00:21:55;;;;;;;2.00;1.83;;;8.80;99.90;;;;;;5085925;28;20193;-49
2022/04/29 00:24:39;;;;;;;1.83;1.50;;;8.80;99.90;;;;;;5086611;28;20243;-55
2022/04/29 00:27:24;;;;;;;3.30;1.50;;;8.80;99.90;;;;;;5083616;28;20228;-56
2022/04/29 00:30:11;;;;;;;1.53;1.43;;;8.80;99.90;;;;;;5085808;28;20192;-52
2022/04/29 00:32:55;;;;;;;1.90;1.47;;;8.80;99.90;;;;;;5085678;28;20189;-56
2022/04/29 00:35:40;;;;;;;1.63;1.53;;;8.60;99.90;;;;;;5083875;28;20192;-51
2022/04/29 00:38:25;;;;;;;1.87;1.53;;;8.50;99.90;;;;;;5086542;28;20563;-54
2022/04/29 00:41:10;;;;;;;2.97;1.73;;;8.40;99.90;;;;;;5083545;28;20193;-55
2022/04/29 00:44:07;;;;;;;2.20;1.70;;;8.40;99.90;;;;;;5084623;28;20200;-55
2022/04/29 00:46:51;;;;;;;4.27;1.60;;;8.50;99.90;;;;;;5085702;28;20266;-53
2022/04/29 00:49:36;;;;;;;2.83;1.93;;;8.50;99.90;;;;;;5083994;28;20343;-57
2022/04/29 00:52:23;;;;;;;2.77;2.20;;;8.40;99.90;;;;;;5084802;28;20197;-52
2022/04/29 00:55:11;;;;;;;1.77;1.67;;;8.40;99.90;;;;;;5086128;28;20189;-56
2022/04/29 00:58:08;;;;;;;1.40;1.30;;;8.30;99.90;;;;;;5083817;28;20216;-53
2022/04/29 01:00:53;;;;;;;2.00;1.50;;;8.10;99.90;;;;;;5085697;28;20254;-50
2022/04/29 01:03:38;;;;;;;2.57;1.73;;;8.10;99.90;;;;;;5086136;28;20197;-55
2022/04/29 01:06:25;;;;;;;1.50;1.40;;;8.10;99.90;;;;;;5082815;28;20233;-57
2022/04/29 01:09:32;;;;;;;2.33;1.77;;;8.20;99.90;;;;;;5085209;28;20200;-54
2022/04/29 01:12:16;;;;;;;2.00;1.80;;;8.20;99.90;;;;;;5085900;28;20196;-49
2022/04/29 01:15:10;;;;;;;2.07;1.87;;;8.00;99.90;;;;;;5083203;28;20213;-45
2022/04/29 01:17:58;;;;;;;2.10;1.53;;;7.90;99.90;;;;;;5084253;28;20216;-53
2022/04/29 01:20:43;;;;;;;1.40;1.40;;;8.00;99.90;;;;;;5085786;28;20278;-53
2022/04/29 01:23:28;;;;;;;1.80;1.70;;;8.10;99.90;;;;;;5082304;28;20193;-55
2022/04/29 01:26:16;;;;;;;2.50;1.90;;;8.00;99.90;;;;;;5084571;28;20262;-56
2022/04/29 01:29:02;;;;;;;2.57;1.60;;;7.80;99.90;;;;;;5083734;28;20243;-52
2022/04/29 01:31:49;;;;;;;1.80;1.40;;;7.60;99.90;;;;;;5082527;28;20188;-50
2022/04/29 01:34:34;;;;;;;2.50;1.67;;;7.60;99.90;;;;;;5084931;28;20188;-53
2022/04/29 01:37:18;;;;;;;2.67;1.70;;;7.60;99.90;;;;;;5082849;28;20220;-52
2022/04/29 01:40:04;;;;;;;1.93;1.77;;;7.50;99.90;;;;;;5082960;28;20205;-50
2022/04/29 01:42:49;;;;;;;2.30;1.63;;;7.50;99.90;;;;;;5085158;28;20189;-52
2022/04/29 01:45:34;;;;;;;1.70;1.60;;;7.70;99.90;;;;;;5083619;28;20224;-52
2022/04/29 01:48:21;;;;;;;2.73;1.90;;;7.60;99.90;;;;;;5083468;28;20201;-56
2022/04/29 01:51:06;;;;;;;1.47;1.27;;;7.70;99.90;;;;;;5084471;28;20258;-55
2022/04/29 01:53:53;;;;;;;1.57;1.47;;;7.60;99.90;;;;;;5082415;28;20189;-52
2022/04/29 01:56:39;;;;;;;1.80;1.50;;;7.60;99.90;;;;;;5084009;28;20297;-50
2022/04/29 01:59:24;;;;;;;2.10;1.47;;;7.70;99.90;;;;;;5084247;28;20243;-55
2022/04/29 02:02:10;;;;;;;2.30;1.67;;;7.60;99.90;;;;;;5081994;28;20196;-53
2022/04/29 02:04:54;;;;;;;1.77;1.67;;;7.50;99.90;;;;;;5084446;28;20273;-49
2022/04/29 02:07:38;;;;;;;2.30;1.83;;;7.50;99.90;;;;;;5082550;28;20201;-50
2022/04/29 02:10:23;;;;;;;1.33;1.23;;;7.60;99.90;;;;;;5082527;28;20196;-56
2022/04/29 02:13:08;;;;;;;1.47;1.37;;;7.50;99.90;;;;;;5084148;28;20208;-51
2022/04/29 02:15:53;;;;;;;1.17;1.07;;;7.50;99.90;;;;;;5082947;28;20234;-52
2022/04/29 02:18:39;;;;;;;3.57;1.40;;;7.50;99.90;;;;;;5084129;28;20243;-53
2022/04/29 02:21:23;;;;;;;2.20;1.57;;;7.40;99.90;;;;;;5084698;28;20200;-54
2022/04/29 02:24:08;;;;;;;1.70;1.60;;;7.40;99.90;;;;;;5081198;28;20294;-55
2022/04/29 02:26:53;;;;;;;1.10;1.03;;;7.20;99.90;;;;;;5083867;28;20278;-53
2022/04/29 02:29:38;;;;;;;1.80;1.00;;;7.20;99.90;;;;;;5083959;28;20188;-57
2022/04/29 02:32:22;;;;;;;1.23;1.13;;;7.10;99.90;;;;;;5080986;28;20214;-53
2022/04/29 02:35:07;;;;;;;1.87;1.40;;;7.00;99.90;;;;;;5084304;28;20652;-57
2022/04/29 02:37:52;;;;;;;1.50;1.40;;;7.00;99.90;;;;;;5082318;28;20243;-55
2022/04/29 02:40:38;;;;;;;1.60;1.53;;;7.00;99.90;;;;;;5081759;28;20243;-55
2022/04/29 02:43:22;;;;;;;3.13;1.70;;;7.10;99.90;;;;;;5084776;28;20207;-51
2022/04/29 02:46:07;;;;;;;1.30;1.30;;;7.00;99.90;;;;;;5082528;28;20188;-53
2022/04/29 02:48:52;;;;;;;3.10;1.10;;;6.90;99.90;;;;;;5082998;28;20267;-55
2022/04/29 02:51:36;;;;;;;1.50;0.97;;;6.90;99.90;;;;;;5084098;28;20185;-56
2022/04/29 02:54:20;;;;;;;3.33;1.57;;;6.90;99.90;;;;;;5081670;28;20246;-54
2022/04/29 02:57:06;;;;;;;2.43;1.37;;;6.80;99.90;;;;;;5083589;28;20274;-53
2022/04/29 02:59:50;;;;;;;1.90;1.60;;;6.70;99.90;;;;;;5083892;28;20213;-55
2022/04/29 03:02:34;;;;;;;1.83;1.40;;;6.80;99.90;;;;;;5081162;28;20246;-51
2022/04/29 03:05:21;;;;;;;2.13;1.17;;;6.70;99.90;;;;;;5083811;28;20227;-50
2022/04/29 03:08:06;;;;;;;4.33;1.40;;;6.60;99.90;;;;;;5082358;28;20188;-57
2022/04/29 03:10:50;;;;;;;1.33;1.33;;;6.70;99.90;;;;;;5082102;28;20189;-54
2022/04/29 03:13:36;;;;;;;1.63;1.53;;;6.70;99.90;;;;;;5083583;28;20197;-51
2022/04/29 03:16:20;;;;;;;2.97;1.60;;;6.70;99.90;;;;;;5081970;28;20221;-57
2022/04/29 03:19:04;;;;;;;1.30;1.30;;;6.70;99.90;;;;;;5082761;28;20201;-52
2022/04/29 03:21:51;;;;;;;1.40;1.30;;;6.70;99.90;;;;;;5083153;28;20196;-55
2022/04/29 03:24:35;;;;;;;2.03;1.87;;;6.70;99.90;;;;;;5080245;28;20197;-55
2022/04/29 03:27:20;;;;;;;1.63;1.33;;;6.80;99.90;;;;;;5082958;28;20869;-55
2022/04/29 03:30:04;;;;;;;2.10;1.50;;;6.80;99.90;;;;;;5081986;28;20197;-53
2022/04/29 03:32:59;;;;;;;1.40;1.30;;;7.00;99.90;;;;;;5080322;28;20189;-52
2022/04/29 03:35:47;;;;;;;1.20;1.10;;;6.80;99.90;;;;;;5082228;28;20193;-53
2022/04/29 03:38:31;;;;;;;1.83;1.53;;;6.60;99.90;;;;;;5081426;28;20209;-54
2022/04/29 03:41:16;;;;;;;1.80;1.60;;;6.70;99.90;;;;;;5083320;28;20200;-50
2022/04/29 03:44:01;;;;;;;1.83;1.63;;;6.70;99.90;;;;;;5086116;28;20288;-53
2022/04/29 03:46:47;;;;;;;1.70;1.20;;;6.70;99.90;;;;;;5084168;28;20225;-53
2022/04/29 03:49:37;;;;;;;1.60;1.50;;;6.60;99.90;;;;;;5083931;28;20227;-51
2022/04/29 03:52:21;;;;;;;11.33;1.97;;;6.40;99.90;;;;;;5086143;28;20239;-51
2022/04/29 03:55:06;;;;;;;1.50;1.33;;;6.50;99.90;;;;;;5083335;28;20221;-54
2022/04/29 03:57:53;;;;;;;1.83;1.70;;;6.60;99.90;;;;;;5084961;28;20233;-52
2022/04/29 04:00:37;;;;;;;6.23;3.77;;;6.50;99.90;;;;;;5086415;28;20274;-55
2022/04/29 04:03:22;;;;;;;4.23;2.40;;;6.40;99.90;;;;;;5082786;28;20224;-56
2022/04/29 04:09:09;;;;;;;1.43;1.37;;;6.60;99.90;;;;;;5088066;28;20278;-54
2022/04/29 04:11:54;;;;;;;2.50;1.77;;;6.40;99.90;;;;;;5083907;28;20274;-52
2022/04/29 04:14:38;;;;;;;1.40;1.30;;;6.60;99.90;;;;;;5086301;28;20200;-57
2022/04/29 04:17:23;;;;;;;1.53;1.43;;;6.30;99.90;;;;;;5085253;28;20243;-55
2022/04/29 04:20:09;;;;;;;1.80;1.27;;;6.40;99.90;;;;;;5084551;28;20220;-57
2022/04/29 04:22:53;;;;;;;1.70;1.60;;;6.40;99.90;;;;;;5086797;28;20297;-54
2022/04/29 04:25:37;;;;;;;1.67;1.57;;;6.60;99.90;;;;;;5084387;28;20188;-52
2022/04/29 04:28:23;;;;;;;3.60;1.87;;;6.50;99.90;;;;;;5085045;28;20196;-55
2022/04/29 04:31:08;;;;;;;1.83;1.63;;;6.60;99.90;;;;;;5086380;28;20193;-53
2022/04/29 04:33:53;;;;;;;1.50;1.43;;;6.70;99.90;;;;;;5083741;28;20215;-50
2022/04/29 04:36:37;;;;;;;1.60;1.57;;;6.60;99.90;;;;;;5085546;28;20274;-55
2022/04/29 04:39:21;;;;;;;1.33;1.33;;;6.50;99.90;;;;;;5086328;28;20193;-51
2022/04/29 04:42:06;;;;;;;1.87;1.40;;;6.40;99.90;;;;;;5083511;28;20247;-53
2022/04/29 04:44:52;;;;;;;4.17;1.50;;;6.20;99.90;;;;;;5086003;28;20259;-56
2022/04/29 04:47:37;;;;;;;1.90;1.80;;;6.30;99.90;;;;;;5084750;28;20204;-57
2022/04/29 04:50:21;;;;;;;1.57;1.47;;;6.40;99.90;;;;;;5083155;28;20192;-54
2022/04/29 04:53:06;;;;;;;1.87;1.37;;;6.50;99.90;;;;;;5085898;28;20193;-56
2022/04/29 04:55:53;;;;;;;3.30;1.10;;;6.50;99.90;;;;;;5083575;28;20251;-55
2022/04/29 04:58:38;;;;;;;1.77;1.67;;;6.60;99.90;;;;;;5084121;28;20236;-54
2022/04/29 05:01:23;;;;;;;1.83;1.27;;;6.70;99.90;;;;;;5086035;28;20250;-52
2022/04/29 05:04:10;;;;;;;1.17;1.17;;;6.70;99.90;;;;;;5083544;28;20193;-52
2022/04/29 05:06:54;;;;;;;2.07;1.87;;;6.80;99.90;;;;;;5084083;28;20264;-51
2022/04/29 05:09:38;;;;;;;1.20;1.13;;;6.80;99.90;;;;;;5085167;28;20200;-58
2022/04/29 05:12:24;;;;;;;5.00;1.87;;;6.80;99.90;;;;;;5083045;28;20192;-53
2022/04/29 05:15:10;;;;;;;2.17;1.63;;;6.80;99.90;;;;;;5085111;28;20251;-53
2022/04/29 05:17:56;;;;;;;1.90;1.80;;;6.60;99.90;;;;;;5084710;28;20216;-55
2022/04/29 05:20:40;;;;;;;5.63;3.10;;;6.70;99.90;;;;;;5082913;28;20212;-56
2022/04/29 05:23:25;;;;;;;3.30;1.73;;;6.60;99.90;;;;;;5085372;28;20260;-57
2022/04/29 05:26:09;;;;;;;1.50;1.40;;;6.70;99.90;;;;;;5083575;28;20268;-59
2022/04/29 05:28:54;;;;;;;1.90;1.80;;;6.70;99.90;;;;;;5082788;28;20251;-53
2022/04/29 05:31:40;;;;;;;1.33;1.23;;;6.80;99.90;;;;;;5085944;28;20243;-53
2022/04/29 05:34:24;;;;;;;2.07;1.80;;;6.80;99.90;;;;;;5082704;28;20188;-51
2022/04/29 05:37:09;;;;;;;2.50;2.23;;;6.80;99.90;;;;;;5084083;28;20287;-54
2022/04/29 05:42:56;;;;;;;2.37;1.30;;;6.90;99.90;;;;;;5084594;28;20185;-52
2022/04/29 05:45:41;;;;;;;2.63;1.60;;;7.10;99.90;;;;;;5084798;28;20208;-51
2022/04/29 05:48:25;;;;;;;1.73;1.50;;;7.10;99.90;;;;;;5084332;28;20239;-55
2022/04/29 05:51:09;;;;;;;1.73;1.63;;;7.00;99.90;;;;;;5081527;28;20191;-55
2022/04/29 05:53:53;;;;;;;1.67;1.57;;;7.10;99.90;;;;;;5083867;28;20315;-54
2022/04/29 05:56:39;;;;;;;1.53;1.43;;;7.40;99.90;;;;;;5083274;28;20267;-56
2022/04/29 05:59:23;;;;;;;3.47;2.10;;;7.60;99.90;;;;;;5082069;28;20216;-58
2022/04/29 06:02:08;;;;;;;2.13;1.93;;;7.70;99.90;;;;;;5084146;28;20200;-53
2022/04/29 06:04:54;;;;;;;2.63;2.03;;;7.90;99.90;;;;;;5082217;28;20196;-57
2022/04/29 06:07:40;;;;;;;4.43;1.70;;;7.80;99.90;;;;;;5082929;28;20189;-56
2022/04/29 06:10:25;;;;;;;2.00;1.80;;;7.80;99.90;;;;;;5084353;28;20188;-50
2022/04/29 06:13:10;;;;;;;2.57;2.10;;;7.70;99.90;;;;;;5082491;28;20239;-51
2022/04/29 06:15:55;;;;;;;2.13;2.00;;;7.90;99.90;;;;;;5084348;28;20200;-53
2022/04/29 06:18:39;;;;;;;1.87;1.77;;;8.20;99.90;;;;;;5084403;28;20285;-55
2022/04/29 06:21:23;;;;;;;2.13;2.00;;;8.30;99.90;;;;;;5081782;28;20205;-55
2022/04/29 06:24:08;;;;;;;4.20;2.13;;;8.40;99.90;;;;;;5083285;28;20339;-54
2022/04/29 06:26:52;;;;;;;2.57;2.37;;;8.30;99.90;;;;;;5082963;28;20241;-54
2022/04/29 06:29:38;;;;;;;7.20;2.00;;;8.40;99.90;;;;;;5082407;28;20193;-54
2022/04/29 06:32:22;;;;;;;5.10;2.10;;;8.70;99.90;;;;;;5083381;28;20255;-55
2022/04/29 06:35:07;;;;;;;3.10;1.97;;;8.80;99.90;;;;;;5082059;28;20223;-52
2022/04/29 06:37:52;;;;;;;2.43;2.23;;;9.20;99.90;;;;;;5082300;28;20377;-52
2022/04/29 06:40:36;;;;;;;3.27;2.43;;;9.50;99.90;;;;;;5084527;28;20262;-50
2022/04/29 06:43:21;;;;;;;3.30;2.53;;;9.80;99.90;;;;;;5081720;28;20228;-53
2022/04/29 06:46:06;;;;;;;2.90;2.70;;;9.80;99.90;;;;;;5083961;28;20211;-52
2022/04/29 06:48:53;;;;;;;2.47;2.27;;;9.80;99.90;;;;;;5083295;28;20200;-54
2022/04/29 06:51:37;;;;;;;2.50;2.33;;;9.80;99.90;;;;;;5081395;28;20196;-56
2022/04/29 06:54:21;;;;;;;2.70;2.50;;;10.00;99.90;;;;;;5083638;28;20259;-54
2022/04/29 06:57:06;;;;;;;2.73;2.53;;;10.30;99.90;;;;;;5082736;28;20252;-58
2022/04/29 06:59:51;;;;;;;4.07;2.73;;;10.50;99.90;;;;;;5081596;28;20205;-52
2022/04/29 07:02:36;;;;;;;2.90;2.60;;;10.70;99.90;;;;;;5083966;28;20247;-52
2022/04/29 07:05:21;;;;;;;3.10;2.80;;;10.80;99.90;;;;;;5081616;28;20282;-53
2022/04/29 07:08:07;;;;;;;3.03;2.73;;;11.10;99.90;;;;;;5082624;28;20208;-53
2022/04/29 07:10:51;;;;;;;3.43;2.73;;;11.30;99.90;;;;;;5084255;28;20286;-51
2022/04/29 07:13:36;;;;;;;3.03;2.73;;;11.60;99.90;;;;;;5081488;28;20197;-55
2022/04/29 07:16:21;;;;;;;2.80;2.60;;;11.90;99.90;;;;;;5087203;28;20208;-54
2022/04/29 07:19:05;;;;;;;2.63;2.43;;;12.00;99.90;;;;;;5088347;28;20209;-58
2022/04/29 07:21:50;;;;;;;2.63;2.43;;;12.10;99.90;;;;;;5085229;28;20195;-55
2022/04/29 07:24:34;;;;;;;2.67;2.37;;;12.50;99.90;;;;;;5086917;28;20188;-55
2022/04/29 07:27:19;;;;;;;6.47;2.90;;;12.70;99.90;;;;;;5086743;28;20235;-57
2022/04/29 07:30:05;;;;;;;2.60;2.40;;;12.90;99.90;;;;;;5085045;28;20201;-54
2022/04/29 07:32:49;;;;;;;2.50;2.30;;;13.10;99.90;;;;;;5087104;28;20247;-51
2022/04/29 07:41:46;;;;;;;3.53;2.70;;;13.60;99.90;;;;;;5088352;28;20255;-53
2022/04/29 07:44:30;;;;;;;2.70;2.30;;;13.70;99.90;;;;;;5085910;28;20207;-55
2022/04/29 07:47:15;;;;;;;2.93;2.73;;;14.00;99.90;;;;;;5085486;28;20258;-50
2022/04/29 07:49:59;;;;;;;2.70;2.50;;;14.10;99.90;;;;;;5087169;28;20194;-55
2022/04/29 07:52:44;;;;;;;3.57;2.30;;;13.90;99.90;;;;;;5084664;28;20188;-56
2022/04/29 07:55:29;;;;;;;3.73;2.57;;;13.90;99.80;;;;;;5086242;28;20624;-54
2022/04/29 07:58:14;;;;;;;2.90;2.40;;;14.10;99.80;;;;;;5087326;28;20271;-58
2022/04/29 08:00:58;;;;;;;2.37;1.90;;;14.10;99.50;;;;;;5084073;28;20202;-57
2022/04/29 08:03:43;;;;;;;2.30;2.17;;;14.40;98.80;;;;;;5086297;28;20197;-51
2022/04/29 08:06:27;;;;;;;1.83;1.73;;;14.40;98.40;;;;;;5086290;28;20228;-57
2022/04/29 08:09:12;;;;;;;2.13;2.03;;;14.50;97.30;;;;;;5084419;28;20190;-51
2022/04/29 08:11:56;;;;;;;2.77;2.57;;;14.80;96.90;;;;;;5086422;28;20192;-53
2022/04/29 08:14:40;;;;;;;5.80;2.77;;;15.00;96.90;;;;;;5085564;28;20200;-55
2022/04/29 08:17:27;;;;;;;2.37;2.17;;;15.20;96.90;;;;;;5084850;28;20235;-59
2022/04/29 08:20:12;;;;;;;2.10;2.00;;;15.70;96.10;;;;;;5086508;28;20217;-59
2022/04/29 08:22:57;;;;;;;2.17;2.03;;;15.90;95.60;;;;;;5084110;28;20244;-58
2022/04/29 08:25:41;;;;;;;2.47;2.23;;;16.10;95.10;;;;;;5084885;28;20253;-57
2022/04/29 08:28:26;;;;;;;2.33;2.23;;;16.50;94.50;;;;;;5086757;28;20268;-56
2022/04/29 08:31:11;;;;;;;2.80;2.60;;;16.70;93.50;;;;;;5083603;28;20261;-59
2022/04/29 08:33:56;;;;;;;2.73;2.53;;;17.00;93.00;;;;;;5085435;28;20215;-56
2022/04/29 08:36:40;;;;;;;2.60;2.10;;;17.20;93.20;;;;;;5086300;28;20208;-60
2022/04/29 08:39:24;;;;;;;3.03;2.77;;;17.30;92.90;;;;;;5083813;28;20205;-56
2022/04/29 08:42:10;;;;;;;3.67;2.50;;;17.90;91.90;;;;;;5086757;28;20230;-59
2022/04/29 08:44:57;;;;;;;2.43;2.27;;;17.70;92.00;;;;;;5084919;28;20241;-59
2022/04/29 08:47:43;;;;;;;2.83;2.60;;;18.10;91.80;;;;;;5084183;28;20261;-56
2022/04/29 08:50:28;;;;;;;5.07;3.03;;;18.10;91.20;;;;;;5086074;28;20242;-54
2022/04/29 08:53:13;;;;;;;2.83;2.63;;;18.50;90.70;;;;;;5083721;28;20216;-57
2022/04/29 08:59:03;;;;;;;2.38;2.28;;;18.40;91.10;;;;;;5087188;28;20196;-56
2022/04/29 09:01:48;;;;;;;4.47;2.03;;;18.20;91.10;;;;;;5084092;28;20193;-54
2022/04/29 09:04:32;;;;;;;1.92;1.83;;;18.30;90.60;;;;;;5085100;28;20459;-51
2022/04/29 09:07:16;;;;;;;2.33;2.05;;;18.90;89.90;;;;;;5086066;28;20208;-53
2022/04/29 09:10:05;;;;;;;2.38;2.00;;;19.10;87.60;;;;;;5082917;28;20247;-51
2022/04/29 09:12:49;;;;;;;2.03;1.92;;;19.10;88.70;;;;;;5084694;28;20193;-56
2022/04/29 09:15:34;;;;;;;4.80;2.67;;;19.30;87.70;;;;;;5085269;28;20306;-61
2022/04/29 09:18:29;;;;;;;2.50;2.30;;;20.00;85.50;;;;;;5083723;28;20270;-59
2022/04/29 09:21:24;;;;;;;2.72;1.92;;;19.70;83.80;;;;;;5085143;28;20492;-57
2022/04/29 09:24:10;;;;;;;1.90;1.80;;;19.10;84.20;;;;;;5085012;28;20193;-59
2022/04/29 09:26:59;;;;;;;3.08;1.77;;;19.60;82.90;;;;;;5083194;28;20204;-52
2022/04/29 09:29:44;;;;;;;1.52;1.48;;;20.80;81.50;;;;;;5085259;28;20617;-56
2022/04/29 09:32:50;;;;;;;2.47;1.70;;;21.70;77.30;;;;;;5083905;28;20221;-55
2022/04/29 09:35:45;;;;;;;1.63;1.52;;;22.00;76.00;;;;;;5082821;28;20227;-58
2022/04/29 09:41:32;;;;;;;18.40;8.48;;;22.70;73.50;;;;;;5086203;28;20200;-57
2022/04/29 09:44:32;;;;;;;7.30;5.07;;;23.50;68.90;;;;;;5082756;28;20234;-53
2022/04/29 09:47:17;;;;;;;5.28;3.40;;;24.30;67.00;;;;;;5085431;28;20200;-54
2022/04/29 09:50:03;;;;;;;1.65;1.55;;;24.00;66.20;;;;;;5084445;28;20218;-54
2022/04/29 09:52:49;;;;;;;1.80;1.70;;;24.80;63.70;;;;;;5082198;28;20317;-57
2022/04/29 09:55:33;;;;;;;1.80;1.70;;;24.40;61.30;;;;;;5084990;28;20204;-53
2022/04/29 09:58:17;;;;;;;1.75;1.50;;;24.20;62.00;;;;;;5083343;28;20220;-50
2022/04/29 10:01:04;;;;;;;1.75;1.38;;;23.70;61.70;;;;;;5083088;28;20235;-53
2022/04/29 10:03:48;;;;;;;2.20;2.08;;;24.60;59.50;;;;;;5085567;28;20243;-53
2022/04/29 10:06:34;;;;;;;1.80;1.70;;;24.60;59.40;;;;;;5082503;28;20232;-56
2022/04/29 10:09:19;;;;;;;1.98;1.83;;;23.20;60.50;;;;;;5083692;28;20193;-50
2022/04/29 10:12:07;;;;;;;1.83;1.63;;;23.30;60.50;;;;;;5084854;28;20193;-55
2022/04/29 10:14:59;;;;;;;2.25;1.55;;;23.80;61.10;;;;;;5082097;28;20313;-58
2022/04/29 10:23:55;;;;;;;4.13;1.40;;;26.10;55.80;;;;;;5084471;28;20290;-53
2022/04/29 10:26:40;;;;;;;2.92;1.70;;;26.20;55.20;;;;;;5083286;28;20308;-58
2022/04/29 10:29:25;;;;;;;1.60;1.50;;;26.70;53.60;;;;;;5085116;28;20264;-53
2022/04/29 10:32:10;;;;;;;4.85;3.88;;;25.40;55.40;;;;;;5082445;28;20199;-53
2022/04/29 10:34:55;;;;;;;1.88;1.77;;;25.10;55.30;;;;;;5083511;28;20679;-53
2022/04/29 10:37:39;;;;;;;2.35;2.25;;;26.90;53.50;;;;;;5084547;28;20192;-58
2022/04/29 10:40:30;;;;;;;1.88;1.77;;;26.80;53.30;;;;;;5082152;28;20197;-51
2022/04/29 10:43:18;;;;;;;2.47;1.70;;;25.80;54.50;;;;;;5083853;28;20189;-58
2022/04/29 10:46:05;;;;;;;4.07;2.25;;;26.00;54.60;;;;;;5082944;28;20208;-54
2022/04/29 10:48:54;;;;;;;2.30;2.05;;;25.50;55.10;;;;;;5083956;28;20201;-57
2022/04/29 10:51:50;;;;;;;1.77;1.67;;;25.60;55.60;;;;;;5088757;28;20200;-53
2022/04/29 10:54:34;;;;;;;2.33;1.73;;;26.40;54.10;;;;;;5087662;28;20406;-53
2022/04/29 10:57:18;;;;;;;2.13;2.00;;;27.00;53.60;;;;;;5086598;28;20249;-54
2022/04/29 11:00:11;;;;;;;1.90;1.80;;;28.60;50.70;;;;;;5088650;28;20288;-53
2022/04/29 11:02:55;;;;;;;2.58;1.60;;;27.30;51.40;;;;;;5086452;28;20294;-56
2022/04/29 11:05:40;;;;;;;1.73;1.63;;;27.40;52.40;;;;;;5086832;28;20612;-52
2022/04/29 11:08:29;;;;;;;1.98;1.98;;;26.40;51.90;;;;;;5088430;28;20335;-55
2022/04/29 11:11:13;;;;;;;2.80;2.60;;;26.90;52.50;;;;;;5086068;28;20205;-57
2022/04/29 11:14:00;;;;;;;1.98;1.88;;;26.70;50.90;;;;;;5087361;28;20188;-54
2022/04/29 11:16:58;;;;;;;1.90;1.80;;;25.30;51.60;;;;;;5088464;28;20267;-52
2022/04/29 11:19:45;;;;;;;1.50;1.50;;;26.10;52.50;;;;;;5086127;28;20672;-54
2022/04/29 11:25:59;;;;;;;2.10;2.00;;;27.50;51.40;;;;;;5026982;28;20199;-56
2022/04/29 11:28:44;;;;;;;1.88;1.77;;;27.60;50.60;;;;;;5010476;28;20215;-55
2022/04/29 11:31:35;;;;;;;2.40;2.30;;;27.70;51.20;;;;;;5010918;28;20198;-53
2022/04/29 11:34:19;;;;;;;5.03;4.53;;;28.10;50.40;;;;;;5012918;28;20203;-52
2022/04/29 11:37:04;;;;;;;2.50;2.40;;;28.90;49.80;;;;;;5010575;28;20254;-57
2022/04/29 11:39:48;;;;;;;1.95;1.85;;;29.10;48.80;;;;;;5011368;28;20198;-52
2022/04/29 11:42:34;;;;;;;2.92;1.98;;;28.30;49.20;;;;;;5011984;28;20338;-59
2022/04/29 11:45:23;;;;;;;2.58;1.67;;;28.20;50.10;;;;;;5009742;28;20226;-53
2022/04/29 11:48:09;;;;;;;2.72;2.53;;;27.90;50.60;;;;;;5011898;28;20400;-58
2022/04/29 11:50:57;;;;;;;3.25;2.10;;;28.60;49.10;;;;;;5011041;28;20191;-59
2022/04/29 11:53:54;;;;;;;2.25;2.05;;;28.50;48.90;;;;;;5009653;28;20257;-58
2022/04/29 11:56:42;;;;;;;2.03;1.90;;;27.50;49.40;;;;;;5056504;28;20251;-57
2022/04/29 11:59:28;;;;;;;1.88;1.77;;;29.00;48.10;;;;;;5086705;28;20193;-57
2022/04/29 12:02:17;;;;;;;2.38;2.00;;;30.60;46.80;;;;;;5084823;28;20184;-57
2022/04/29 12:05:06;;;;;;;1.50;1.50;;;30.30;46.40;;;;;;5087234;28;20201;-56
2022/04/29 12:07:51;;;;;;;1.35;1.35;;;30.30;46.80;;;;;;5085691;28;20225;-53
2022/04/29 12:10:35;;;;;;;1.63;1.55;;;29.70;48.00;;;;;;5085739;28;20180;-54
2022/04/29 12:13:21;;;;;;;1.77;1.67;;;29.10;47.70;;;;;;5087842;28;20200;-55
2022/04/29 12:16:06;;;;;;;1.60;1.50;;;30.60;46.30;;;;;;5085442;28;20228;-59
2022/04/29 12:18:51;;;;;;;1.30;1.30;;;30.90;45.40;;;;;;5086942;28;20200;-57
2022/04/29 12:21:36;;;;;;;1.60;1.50;;;30.40;46.60;;;;;;5087513;28;20196;-59
2022/04/29 12:24:20;;;;;;;1.50;1.50;;;29.90;46.60;;;;;;5085097;28;20357;-53
2022/04/29 12:27:06;;;;;;;2.30;2.20;;;31.10;45.50;;;;;;5086718;28;20248;-56
2022/04/29 12:34:48;;;;;;;1.98;1.95;;;29.80;44.50;;;;;;5086317;28;20196;-53
2022/04/29 12:36:13;;;;;;;3.55;1.75;;;29.70;47.80;;;;;;5087251;28;20197;-56
2022/04/29 12:39:05;;;;;;;1.30;1.30;;;29.00;46.90;;;;;;5086982;28;20201;-55
2022/04/29 12:42:16;;;;;;;1.60;1.60;;;29.50;46.90;;;;;;5084320;28;20193;-59
2022/04/29 12:45:18;;;;;;;1.80;1.70;;;28.40;47.50;;;;;;5084508;28;20239;-56
2022/04/29 12:48:08;;;;;;;1.33;1.27;;;29.20;47.10;;;;;;5087068;28;20216;-57
2022/04/29 12:50:53;;;;;;;1.85;1.75;;;29.40;48.00;;;;;;5084543;28;20192;-53
2022/04/29 12:53:37;;;;;;;1.77;1.67;;;29.60;46.90;;;;;;5084338;28;20243;-54
2022/04/29 12:56:29;;;;;;;3.03;1.42;;;28.20;48.60;;;;;;5086916;28;20193;-56
2022/04/29 12:59:24;;;;;;;1.30;1.30;;;28.60;47.80;;;;;;5084160;28;20213;-52
2022/04/29 13:02:09;;;;;;;1.40;1.40;;;29.30;46.70;;;;;;5085200;28;20211;-56
2022/04/29 13:04:53;;;;;;;1.55;1.45;;;29.70;46.40;;;;;;5086193;28;20192;-54
2022/04/29 13:07:37;;;;;;;1.88;1.48;;;30.20;45.80;;;;;;5083381;28;20270;-59
2022/04/29 13:10:23;;;;;;;1.70;1.60;;;31.10;45.00;;;;;;5085009;28;20298;-55
2022/04/29 13:13:07;;;;;;;1.85;1.75;;;31.60;44.60;;;;;;5084462;28;20185;-59
2022/04/29 13:15:52;;;;;;;2.00;1.90;;;30.40;44.50;;;;;;5083654;28;20220;-56
2022/04/29 13:18:36;;;;;;;1.60;1.50;;;30.00;46.00;;;;;;5086152;28;20238;-54
2022/04/29 13:21:21;;;;;;;1.60;1.60;;;30.20;45.20;;;;;;5084871;28;20184;-55
2022/04/29 13:24:07;;;;;;;1.98;1.90;;;30.70;45.60;;;;;;5083819;28;20192;-53
2022/04/29 13:26:51;;;;;;;1.52;1.52;;;29.20;45.60;;;;;;5086278;28;20290;-56
2022/04/29 13:29:36;;;;;;;1.50;1.40;;;30.00;45.70;;;;;;5083624;28;20311;-58
2022/04/29 13:32:20;;;;;;;1.33;1.33;;;30.10;45.40;;;;;;5084539;28;20197;-54
2022/04/29 13:35:06;;;;;;;1.58;1.58;;;30.90;43.80;;;;;;5086400;28;20213;-59
2022/04/29 13:37:50;;;;;;;1.55;1.45;;;30.00;44.90;;;;;;5083306;28;20219;-58
2022/04/29 13:40:35;;;;;;;1.45;1.42;;;28.60;46.50;;;;;;5084920;28;20192;-55
2022/04/29 13:43:20;;;;;;;1.65;1.63;;;27.80;47.60;;;;;;5084959;28;20220;-54
2022/04/29 13:46:05;;;;;;;1.40;1.30;;;27.20;47.50;;;;;;5082381;28;20197;-59
2022/04/29 13:48:50;;;;;;;2.40;1.60;;;28.20;47.20;;;;;;5084468;28;20236;-54
2022/04/29 13:51:34;;;;;;;1.55;1.52;;;29.00;45.30;;;;;;5084499;28;20184;-55
2022/04/29 13:54:19;;;;;;;1.42;1.42;;;30.20;45.50;;;;;;5083446;28;20201;-55
2022/04/29 13:57:03;;;;;;;1.45;1.25;;;30.30;45.60;;;;;;5085943;28;20229;-56
2022/04/29 13:59:48;;;;;;;1.73;1.63;;;31.40;44.30;;;;;;5083527;28;20414;-58
2022/04/29 14:02:33;;;;;;;1.55;1.52;;;30.60;44.20;;;;;;5084018;28;20185;-58
2022/04/29 14:05:17;;;;;;;1.35;1.35;;;29.60;45.00;;;;;;5084882;28;20317;-59
2022/04/29 14:08:01;;;;;;;1.77;1.67;;;28.70;46.30;;;;;;5081683;28;20252;-58
2022/04/29 14:10:47;;;;;;;1.50;1.50;;;27.80;45.80;;;;;;5084290;28;20223;-55
2022/04/29 14:13:33;;;;;;;1.80;1.70;;;27.50;47.00;;;;;;5084544;28;20193;-56
2022/04/29 14:16:18;;;;;;;2.05;1.65;;;26.40;48.80;;;;;;5081490;28;20204;-56
2022/04/29 14:19:02;;;;;;;1.20;1.20;;;25.70;50.30;;;;;;5084995;28;20615;-56
2022/04/29 14:21:46;;;;;;;1.40;1.40;;;25.80;50.70;;;;;;5083447;28;20201;-58
2022/04/29 14:24:33;;;;;;;1.15;1.15;;;27.30;48.60;;;;;;5082635;28;20197;-58
2022/04/29 14:27:20;;;;;;;1.23;1.15;;;28.30;47.50;;;;;;5085284;28;20224;-52
2022/04/29 14:30:06;;;;;;;1.42;1.33;;;28.00;48.00;;;;;;5082108;28;20193;-53
2022/04/29 14:32:53;;;;;;;1.40;1.40;;;27.60;47.60;;;;;;5083051;28;20201;-56
2022/04/29 14:35:38;;;;;;;1.42;1.30;;;27.30;48.10;;;;;;5084699;28;20201;-55
2022/04/29 14:38:23;;;;;;;1.20;1.20;;;27.60;48.10;;;;;;5082110;28;20192;-57
2022/04/29 14:41:08;;;;;;;1.27;1.27;;;28.00;47.70;;;;;;5083733;28;20204;-57
2022/04/29 14:43:53;;;;;;;1.95;1.27;;;28.50;48.20;;;;;;5084596;28;20193;-59
2022/04/29 14:46:38;;;;;;;1.17;1.17;;;29.70;46.80;;;;;;5081974;28;20200;-56
2022/04/29 14:49:22;;;;;;;2.28;1.27;;;29.70;46.80;;;;;;5084475;28;20286;-59
2022/04/29 14:52:08;;;;;;;1.00;1.00;;;29.70;46.80;;;;;;5083817;28;20267;-59
2022/04/29 14:54:52;;;;;;;1.95;1.27;;;30.10;46.80;;;;;;5082306;28;20190;-58
2022/04/29 14:57:39;;;;;;;1.10;1.10;;;29.90;46.00;;;;;;5084453;28;20192;-58
2022/04/29 15:00:23;;;;;;;1.27;1.23;;;29.80;46.90;;;;;;5082312;28;20361;-53